createdAt,value
2022-12-15T00:01:07.086Z,4.50
2022-12-15T00:04:25.438Z,4.72
2022-12-15T00:07:42.848Z,4.90
2022-12-15T00:11:00.561Z,5.13
2022-12-15T00:14:17.967Z,5.80
2022-12-15T00:17:38.364Z,5.70
2022-12-15T00:20:55.963Z,5.47
2022-12-15T00:24:13.816Z,5.75
2022-12-15T00:27:31.235Z,4.57
2022-12-15T00:30:49.890Z,5.30
2022-12-15T00:34:10.483Z,5.30
2022-12-15T00:37:27.836Z,4.65
2022-12-15T00:40:33.326Z,4.78
2022-12-15T00:43:39.363Z,5.05
2022-12-15T00:46:59.927Z,5.00
2022-12-15T00:50:20.893Z,5.15
2022-12-15T00:53:40.547Z,5.05
2022-12-15T00:56:58.080Z,4.70
2022-12-15T01:00:15.740Z,5.50
2022-12-15T01:03:35.522Z,5.47
2022-12-15T01:06:56.384Z,5.25
2022-12-15T01:10:14.182Z,5.70
2022-12-15T01:13:32.332Z,4.78
2022-12-15T01:16:50.539Z,5.85
2022-12-15T01:20:08.332Z,6.47
2022-12-15T01:23:16.474Z,4.85
2022-12-15T01:26:22.006Z,5.68
2022-12-15T01:29:27.389Z,5.30
2022-12-15T01:32:32.782Z,5.82
2022-12-15T01:35:38.167Z,6.07
2022-12-15T01:38:50.725Z,5.90
2022-12-15T01:41:56.631Z,5.45
2022-12-15T01:45:17.105Z,5.88
2022-12-15T01:48:24.146Z,5.70
2022-12-15T01:51:31.815Z,5.85
2022-12-15T01:54:41.761Z,5.72
2022-12-15T01:57:47.361Z,5.90
2022-12-15T02:00:52.818Z,6.28
2022-12-15T02:03:58.318Z,5.70
2022-12-15T02:07:03.677Z,5.95
2022-12-15T02:10:13.237Z,6.40
2022-12-15T02:13:22.788Z,6.10
2022-12-15T02:16:33.169Z,5.80
2022-12-15T02:19:53.556Z,6.70
2022-12-15T02:23:16.758Z,6.65
2022-12-15T02:26:42.309Z,6.93
2022-12-15T02:30:00.405Z,6.88
2022-12-15T02:33:18.025Z,6.43
2022-12-15T02:36:27.728Z,7.05
2022-12-15T02:39:33.145Z,6.32
2022-12-15T02:42:40.360Z,5.90
2022-12-15T02:45:52.465Z,6.40
2022-12-15T02:49:03.745Z,6.70
2022-12-15T02:52:14.172Z,6.30
2022-12-15T02:55:23.227Z,6.70
2022-12-15T02:58:33.235Z,6.90
2022-12-15T03:01:40.481Z,6.60
2022-12-15T03:04:48.638Z,8.57
2022-12-15T03:07:54.469Z,6.50
2022-12-15T03:11:00.478Z,6.85
2022-12-15T03:14:05.855Z,6.18
2022-12-15T03:17:11.453Z,6.32
2022-12-15T03:20:19.486Z,6.68
2022-12-15T03:26:29.883Z,6.05
2022-12-15T03:29:35.393Z,6.00
2022-12-15T03:32:40.734Z,7.03
2022-12-15T03:35:48.906Z,6.85
2022-12-15T03:38:54.501Z,6.68
2022-12-15T03:41:59.656Z,6.15
2022-12-15T03:45:05.437Z,6.20
2022-12-15T03:48:10.979Z,5.93
2022-12-15T03:51:19.786Z,6.85
2022-12-15T03:54:24.992Z,6.53
2022-12-15T03:57:30.555Z,6.18
2022-12-15T04:00:35.999Z,6.35
2022-12-15T04:03:41.726Z,6.25
2022-12-15T04:06:49.595Z,8.10
2022-12-15T04:09:55.041Z,6.28
2022-12-15T04:13:00.636Z,6.55
2022-12-15T04:16:06.290Z,7.53
2022-12-15T04:19:23.636Z,6.72
2022-12-15T04:22:31.917Z,6.40
2022-12-15T04:29:06.510Z,6.30
2022-12-15T04:32:24.113Z,6.82
2022-12-15T04:35:41.820Z,6.10
2022-12-15T04:39:02.065Z,6.53
2022-12-15T04:42:20.492Z,6.22
2022-12-15T04:45:39.745Z,6.78
2022-12-15T04:48:57.472Z,6.15
2022-12-15T04:52:15.183Z,7.00
2022-12-15T04:55:35.320Z,6.82
2022-12-15T04:58:52.668Z,6.95
2022-12-15T05:02:10.481Z,7.05
2022-12-15T05:08:45.729Z,6.40
2022-12-15T05:12:10.441Z,6.72
2022-12-15T05:15:28.442Z,7.15
2022-12-15T05:18:46.157Z,7.43
2022-12-15T05:22:03.906Z,6.88
2022-12-15T05:25:22.283Z,6.82
2022-12-15T05:28:42.888Z,6.78
2022-12-15T05:31:55.708Z,7.07
2022-12-15T05:35:01.522Z,6.60
2022-12-15T05:38:09.663Z,7.22
2022-12-15T05:41:15.495Z,7.88
2022-12-15T05:44:23.456Z,6.78
2022-12-15T05:47:29.103Z,7.40
2022-12-15T05:50:34.222Z,7.90
2022-12-15T05:53:40.270Z,7.85
2022-12-15T05:56:45.665Z,8.05
2022-12-15T05:59:53.741Z,8.40
2022-12-15T06:02:58.937Z,8.85
2022-12-15T06:06:04.837Z,7.68
2022-12-15T06:09:10.347Z,7.88
2022-12-15T06:12:15.903Z,7.00
2022-12-15T06:15:23.694Z,6.93
2022-12-15T06:18:30.931Z,7.35
2022-12-15T06:21:37.870Z,6.93
2022-12-15T06:24:43.417Z,6.40
2022-12-15T06:27:48.978Z,6.93
2022-12-15T06:30:58.129Z,7.47
2022-12-15T06:34:06.209Z,7.03
2022-12-15T06:37:11.448Z,7.95
2022-12-15T06:40:16.894Z,6.93
2022-12-15T06:43:22.295Z,8.57
2022-12-15T06:46:31.398Z,8.60
2022-12-15T06:49:36.621Z,7.78
2022-12-15T06:52:42.242Z,7.43
2022-12-15T06:55:47.826Z,8.32
2022-12-15T06:58:53.911Z,8.68
2022-12-15T07:02:01.904Z,9.52
2022-12-15T07:05:08.171Z,8.18
2022-12-15T07:08:14.330Z,8.25
2022-12-15T07:11:19.838Z,7.68
2022-12-15T07:14:26.139Z,9.07
2022-12-15T07:17:34.186Z,8.02
2022-12-15T07:20:40.059Z,8.85
2022-12-15T07:23:54.802Z,8.48
2022-12-15T07:27:02.036Z,10.45
2022-12-15T07:30:07.840Z,10.18
2022-12-15T07:33:16.069Z,9.23
2022-12-15T07:36:21.845Z,9.65
2022-12-15T07:39:27.714Z,9.20
2022-12-15T07:42:33.255Z,9.07
2022-12-15T07:45:38.963Z,10.25
2022-12-15T07:48:50.234Z,11.48
2022-12-15T07:51:58.795Z,10.13
2022-12-15T07:55:04.093Z,10.52
2022-12-15T07:58:09.657Z,11.70
2022-12-15T08:01:16.557Z,10.85
2022-12-15T08:04:24.441Z,10.82
2022-12-15T08:07:30.229Z,10.35
2022-12-15T08:10:35.324Z,10.38
2022-12-15T08:17:07.281Z,9.48
2022-12-15T08:20:15.776Z,9.63
2022-12-15T08:23:21.191Z,10.77
2022-12-15T08:26:30.313Z,9.05
2022-12-15T08:29:52.550Z,9.40
2022-12-15T08:32:58.433Z,10.18
2022-12-15T08:36:07.546Z,8.48
2022-12-15T08:39:12.934Z,9.52
2022-12-15T08:42:18.259Z,8.95
2022-12-15T08:45:23.849Z,8.40
2022-12-15T08:48:29.097Z,8.80
2022-12-15T08:51:37.365Z,7.70
2022-12-15T08:54:42.613Z,7.13
2022-12-15T08:57:48.250Z,7.20
2022-12-15T09:00:53.924Z,7.43
2022-12-15T09:03:59.797Z,9.40
2022-12-15T09:07:08.086Z,6.85
2022-12-15T09:13:18.538Z,7.43
2022-12-15T09:16:24.764Z,6.70
2022-12-15T09:19:30.525Z,6.90
2022-12-15T09:22:38.802Z,6.75
2022-12-15T09:25:44.940Z,7.25
2022-12-15T09:28:50.785Z,6.78
2022-12-15T09:31:56.490Z,7.38
2022-12-15T09:35:01.714Z,6.80
2022-12-15T09:38:11.822Z,6.97
2022-12-15T09:44:23.961Z,6.82
2022-12-15T09:47:34.058Z,7.03
2022-12-15T09:50:41.469Z,6.53
2022-12-15T09:53:55.025Z,6.97
2022-12-15T09:57:02.824Z,7.10
2022-12-15T10:00:11.536Z,7.28
2022-12-15T10:03:33.407Z,6.80
2022-12-15T10:06:42.715Z,7.68
2022-12-15T10:09:50.705Z,8.02
2022-12-15T10:13:02.077Z,7.75
2022-12-15T10:16:10.914Z,7.45
2022-12-15T10:19:17.319Z,7.43
2022-12-15T10:22:24.708Z,7.07
2022-12-15T10:25:33.521Z,7.32
2022-12-15T10:28:54.647Z,7.13
2022-12-15T10:32:05.299Z,8.50
2022-12-15T10:35:11.793Z,8.10
2022-12-15T10:38:25.384Z,7.45
2022-12-15T10:41:35.360Z,7.28
2022-12-15T10:44:41.875Z,7.70
2022-12-15T10:47:59.832Z,7.90
2022-12-15T10:51:19.715Z,8.55
2022-12-15T10:54:25.809Z,8.98
2022-12-15T10:57:35.593Z,7.57
2022-12-15T11:00:41.467Z,7.82
2022-12-15T11:03:47.286Z,7.82
2022-12-15T11:06:59.378Z,7.50
2022-12-15T11:10:05.404Z,8.63
2022-12-15T11:13:17.385Z,7.57
2022-12-15T11:16:23.032Z,8.48
2022-12-15T11:19:33.973Z,7.43
2022-12-15T11:22:43.777Z,8.30
2022-12-15T11:26:07.216Z,8.25
2022-12-15T11:32:21.636Z,9.23
2022-12-15T11:35:31.487Z,7.82
2022-12-15T11:38:42.631Z,8.15
2022-12-15T11:41:52.374Z,8.00
2022-12-15T11:45:03.342Z,8.57
2022-12-15T11:48:15.459Z,8.32
2022-12-15T11:51:25.131Z,8.13
2022-12-15T11:54:32.380Z,8.27
2022-12-15T11:57:47.608Z,8.43
2022-12-15T12:01:01.167Z,8.68
2022-12-15T12:04:13.477Z,8.88
2022-12-15T12:07:21.799Z,8.23
2022-12-15T12:13:34.803Z,8.20
2022-12-15T12:16:43.264Z,7.32
2022-12-15T12:20:13.002Z,7.78
2022-12-15T12:23:20.728Z,8.93
2022-12-15T12:26:29.809Z,8.20
2022-12-15T12:29:36.362Z,8.07
2022-12-15T12:32:45.590Z,8.20
2022-12-15T12:35:55.400Z,8.25
2022-12-15T12:39:01.277Z,8.90
2022-12-15T12:42:10.640Z,9.15
2022-12-15T12:45:17.262Z,8.25
2022-12-15T12:48:27.544Z,8.05
2022-12-15T12:51:36.876Z,9.13
2022-12-15T12:54:50.243Z,8.73
2022-12-15T12:57:56.708Z,7.95
2022-12-15T13:01:17.017Z,7.60
2022-12-15T13:04:37.376Z,8.05
2022-12-15T13:07:45.550Z,8.15
2022-12-15T13:10:56.189Z,8.82
2022-12-15T13:14:01.693Z,8.73
2022-12-15T13:17:25.870Z,8.43
2022-12-15T13:20:33.095Z,8.30
2022-12-15T13:23:48.608Z,9.60
2022-12-15T13:26:56.055Z,8.73
2022-12-15T13:30:02.887Z,8.88
2022-12-15T13:33:18.194Z,9.70
2022-12-15T13:36:41.441Z,9.77
2022-12-15T13:40:01.825Z,12.93
2022-12-15T13:43:35.456Z,9.30
2022-12-15T13:46:47.384Z,9.43
2022-12-15T13:50:01.341Z,9.55
2022-12-15T13:53:20.112Z,9.15
2022-12-15T13:56:43.161Z,9.95
2022-12-15T13:59:50.781Z,9.15
2022-12-15T14:03:07.018Z,9.35
2022-12-15T14:06:16.216Z,10.05
2022-12-15T14:09:24.417Z,10.98
2022-12-15T14:12:29.818Z,9.77
2022-12-15T14:15:35.676Z,9.10
2022-12-15T14:18:45.740Z,9.30
2022-12-15T14:21:56.840Z,8.93
2022-12-15T14:25:03.198Z,9.50
2022-12-15T14:28:26.421Z,8.88
2022-12-15T14:31:31.580Z,9.20
2022-12-15T14:34:42.306Z,8.35
2022-12-15T14:37:47.724Z,8.27
2022-12-15T14:40:56.309Z,8.02
2022-12-15T14:47:30.663Z,8.70
2022-12-15T14:50:38.624Z,8.65
2022-12-15T14:53:44.913Z,9.20
2022-12-15T14:56:59.450Z,8.30
2022-12-15T15:00:18.948Z,10.27
2022-12-15T15:03:16.014Z,8.88
2022-12-15T15:03:25.896Z,8.98
2022-12-15T15:06:36.354Z,9.13
2022-12-15T15:09:42.705Z,9.02
2022-12-15T15:12:49.235Z,9.38
2022-12-15T15:15:54.959Z,9.60
2022-12-15T15:19:00.587Z,8.20
2022-12-15T15:22:09.135Z,9.57
2022-12-15T15:25:40.246Z,9.60
2022-12-15T15:28:46.960Z,9.77
2022-12-15T15:31:55.799Z,9.27
2022-12-15T15:35:01.428Z,8.82
2022-12-15T15:38:24.802Z,10.38
2022-12-15T15:41:32.105Z,10.00
2022-12-15T15:44:37.869Z,10.02
2022-12-15T15:47:43.625Z,12.68
2022-12-15T15:50:49.725Z,10.35
2022-12-15T15:53:58.343Z,10.15
2022-12-15T15:57:03.946Z,10.70
2022-12-15T16:00:17.154Z,10.50
2022-12-15T16:03:23.017Z,10.23
2022-12-15T16:06:28.514Z,10.07
2022-12-15T16:09:36.412Z,9.70
2022-12-15T16:12:43.878Z,9.85
2022-12-15T16:15:49.684Z,9.80
2022-12-15T16:18:55.257Z,9.55
2022-12-15T16:22:00.859Z,9.98
2022-12-15T16:25:10.099Z,9.15
2022-12-15T16:28:17.476Z,8.85
2022-12-15T16:31:35.669Z,9.65
2022-12-15T16:34:45.944Z,9.38
2022-12-15T16:37:51.553Z,9.75
2022-12-15T16:41:01.273Z,9.18
2022-12-15T16:44:06.705Z,12.30
2022-12-15T16:47:11.902Z,10.00
2022-12-15T16:50:18.067Z,9.45
2022-12-15T16:53:25.273Z,9.50
2022-12-15T16:56:33.522Z,9.80
2022-12-15T16:59:38.970Z,9.50
2022-12-15T17:02:44.809Z,10.68
2022-12-15T17:05:51.628Z,9.93
2022-12-15T17:08:58.326Z,11.52
2022-12-15T17:12:06.646Z,10.07
2022-12-15T17:15:18.948Z,10.52
2022-12-15T17:18:24.007Z,10.15
2022-12-15T17:21:30.902Z,10.55
2022-12-15T17:24:36.522Z,9.77
2022-12-15T17:27:44.496Z,10.02
2022-12-15T17:30:50.468Z,10.52
2022-12-15T17:33:56.595Z,10.00
2022-12-15T17:37:03.214Z,10.15
2022-12-15T17:40:17.625Z,9.93
2022-12-15T17:43:33.621Z,10.10
2022-12-15T17:46:41.365Z,10.35
2022-12-15T17:49:47.536Z,11.35
2022-12-15T17:52:53.376Z,10.55
2022-12-15T17:55:58.506Z,8.93
2022-12-15T17:59:06.579Z,10.90
2022-12-15T18:02:14.423Z,9.77
2022-12-15T18:08:25.911Z,10.00
2022-12-15T18:11:31.048Z,10.05
2022-12-15T18:14:39.137Z,10.00
2022-12-15T18:17:45.356Z,11.27
2022-12-15T18:20:50.745Z,11.32
2022-12-15T18:23:55.868Z,11.50
2022-12-15T18:27:01.262Z,11.63
2022-12-15T18:30:09.972Z,10.50
2022-12-15T18:33:15.642Z,10.88
2022-12-15T18:36:21.178Z,9.95
2022-12-15T18:39:26.882Z,9.68
2022-12-15T18:42:32.209Z,10.35
2022-12-15T18:45:40.268Z,10.52
2022-12-15T18:48:46.199Z,10.13
2022-12-15T18:51:52.033Z,10.38
2022-12-15T18:54:57.594Z,10.55
2022-12-15T18:58:03.124Z,10.80
2022-12-15T19:01:11.737Z,10.27
2022-12-15T19:04:17.355Z,10.30
2022-12-15T19:07:22.680Z,10.45
2022-12-15T19:10:28.685Z,10.55
2022-12-15T19:13:35.771Z,9.57
2022-12-15T19:17:08.194Z,10.70
2022-12-15T19:20:31.194Z,10.25
2022-12-15T19:23:37.021Z,9.73
2022-12-15T19:26:43.961Z,10.10
2022-12-15T19:29:49.158Z,9.90
2022-12-15T19:32:57.204Z,10.65
2022-12-15T19:36:02.286Z,11.15
2022-12-15T19:39:08.193Z,10.23
2022-12-15T19:42:18.872Z,16.08
2022-12-15T19:45:25.991Z,12.15
2022-12-15T19:48:34.216Z,11.98
2022-12-15T19:51:39.975Z,12.88
2022-12-15T19:54:46.017Z,11.07
2022-12-15T19:57:51.099Z,12.80
2022-12-15T20:00:56.770Z,11.85
2022-12-15T20:04:04.619Z,12.20
2022-12-15T20:07:09.998Z,12.20
2022-12-15T20:10:24.474Z,13.30
2022-12-15T20:13:33.819Z,12.88
2022-12-15T20:16:39.230Z,11.73
2022-12-15T20:19:47.444Z,14.15
2022-12-15T20:22:54.800Z,13.05
2022-12-15T20:26:00.983Z,16.58
2022-12-15T20:29:06.839Z,12.65
2022-12-15T20:32:17.253Z,12.85
2022-12-15T20:35:25.811Z,13.32
2022-12-15T20:38:32.778Z,13.57
2022-12-15T20:41:38.096Z,12.95
2022-12-15T20:44:43.816Z,13.57
2022-12-15T20:47:49.433Z,13.88
2022-12-15T20:50:57.631Z,13.38
2022-12-15T20:54:04.317Z,14.30
2022-12-15T20:57:09.664Z,18.42
2022-12-15T21:00:17.038Z,15.10
2022-12-15T21:03:24.235Z,13.70
2022-12-15T21:06:32.568Z,14.57
2022-12-15T21:09:37.893Z,14.00
2022-12-15T21:12:43.999Z,14.73
2022-12-15T21:15:50.072Z,15.07
2022-12-15T21:19:20.196Z,14.45
2022-12-15T21:22:26.028Z,14.57
2022-12-15T21:25:31.341Z,14.82
2022-12-15T21:28:36.639Z,14.48
2022-12-15T21:31:42.417Z,14.70
2022-12-15T21:34:47.959Z,14.00
2022-12-15T21:37:55.917Z,15.45
2022-12-15T21:41:05.107Z,16.15
2022-12-15T21:44:13.333Z,14.10
2022-12-15T21:47:26.461Z,15.43
2022-12-15T21:50:29.521Z,13.88
2022-12-15T21:53:37.579Z,13.18
2022-12-15T21:56:42.618Z,14.55
2022-12-15T21:59:48.121Z,15.02
2022-12-15T22:02:54.554Z,19.73
2022-12-15T22:06:00.208Z,14.00
2022-12-15T22:09:07.986Z,14.68
2022-12-15T22:12:19.366Z,14.23
2022-12-15T22:15:25.314Z,13.73
2022-12-15T22:18:31.577Z,13.13
2022-12-15T22:21:37.161Z,12.90
2022-12-15T22:24:45.087Z,13.50
2022-12-15T22:27:50.958Z,13.27
2022-12-15T22:30:57.906Z,13.45
2022-12-15T22:34:03.525Z,13.98
2022-12-15T22:37:08.974Z,12.88
2022-12-15T22:40:17.932Z,13.10
2022-12-15T22:43:25.332Z,13.43
2022-12-15T22:46:30.931Z,10.35
2022-12-15T22:49:38.265Z,13.57
2022-12-15T22:52:45.705Z,12.73
2022-12-15T22:55:54.054Z,13.25
2022-12-15T22:59:02.921Z,12.50
2022-12-15T23:02:08.308Z,13.40
2022-12-15T23:05:15.151Z,12.82
2022-12-15T23:08:20.733Z,13.68
2022-12-15T23:11:41.671Z,12.95
2022-12-15T23:14:59.354Z,13.25
2022-12-15T23:18:04.563Z,12.98
2022-12-15T23:21:10.885Z,13.45
2022-12-15T23:24:16.002Z,12.73
2022-12-15T23:27:24.180Z,12.43
2022-12-15T23:30:29.344Z,13.13
2022-12-15T23:33:35.580Z,13.02
2022-12-15T23:36:41.433Z,12.50
2022-12-15T23:39:47.112Z,13.10
2022-12-15T23:42:55.350Z,11.57
2022-12-15T23:46:02.278Z,12.23
2022-12-15T23:49:07.841Z,12.70
2022-12-15T23:52:13.602Z,11.95
2022-12-15T23:55:19.427Z,12.35
2022-12-15T23:58:27.640Z,12.00
